sensor_id;sensor_type;location;lat;lon;timestamp;pressure;altitude;pressure_sealevel;temperature;humidity
3178;BME280;38141;42.666;23.344;2023-05-09T00:00:52;94940.03;;;13.88;100.00
3178;BME280;38141;42.666;23.344;2023-05-09T00:03:19;94934.56;;;13.95;100.00
3178;BME280;38141;42.666;23.344;2023-05-09T00:05:47;94959.03;;;13.98;100.00
3178;BME280;38141;42.666;23.344;2023-05-09T00:08:13;94941.88;;;14.05;100.00
3178;BME280;38141;42.666;23.344;2023-05-09T00:10:41;94947.75;;;14.03;100.00
3178;BME280;38141;42.666;23.344;2023-05-09T00:13:08;94947.41;;;13.94;100.00
3178;BME280;38141;42.666;23.344;2023-05-09T00:15:34;94955.94;;;13.93;100.00
3178;BME280;38141;42.666;23.344;2023-05-09T00:18:01;94953.19;;;14.00;100.00
3178;BME280;38141;42.666;23.344;2023-05-09T00:20:28;94957.44;;;14.01;100.00
3178;BME280;38141;42.666;23.344;2023-05-09T00:22:56;94961.31;;;14.07;100.00
3178;BME280;38141;42.666;23.344;2023-05-09T00:25:24;94926.84;;;13.90;100.00
3178;BME280;38141;42.666;23.344;2023-05-09T00:27:51;94948.41;;;14.21;100.00
3178;BME280;38141;42.666;23.344;2023-05-09T00:30:18;94939.13;;;14.12;100.00
3178;BME280;38141;42.666;23.344;2023-05-09T00:32:45;94943.41;;;14.09;100.00
3178;BME280;38141;42.666;23.344;2023-05-09T00:35:11;94934.50;;;14.05;100.00
3178;BME280;38141;42.666;23.344;2023-05-09T00:37:38;94938.00;;;14.06;100.00
3178;BME280;38141;42.666;23.344;2023-05-09T00:40:07;94935.22;;;14.13;100.00
3178;BME280;38141;42.666;23.344;2023-05-09T00:42:34;94913.22;;;13.93;100.00
3178;BME280;38141;42.666;23.344;2023-05-09T00:45:01;94943.81;;;14.08;100.00
3178;BME280;38141;42.666;23.344;2023-05-09T00:47:28;94935.53;;;14.22;100.00
3178;BME280;38141;42.666;23.344;2023-05-09T00:49:55;94938.59;;;14.31;100.00
3178;BME280;38141;42.666;23.344;2023-05-09T00:52:23;94936.00;;;14.13;100.00
3178;BME280;38141;42.666;23.344;2023-05-09T00:54:51;94930.59;;;14.06;100.00
3178;BME280;38141;42.666;23.344;2023-05-09T00:57:19;94945.34;;;14.09;100.00
3178;BME280;38141;42.666;23.344;2023-05-09T00:59:46;94905.41;;;13.99;100.00
3178;BME280;38141;42.666;23.344;2023-05-09T01:02:14;94943.25;;;14.34;100.00
3178;BME280;38141;42.666;23.344;2023-05-09T01:04:41;94923.19;;;14.10;100.00
3178;BME280;38141;42.666;23.344;2023-05-09T01:07:13;94937.16;;;14.16;100.00
3178;BME280;38141;42.666;23.344;2023-05-09T01:09:48;94908.16;;;13.92;100.00
3178;BME280;38141;42.666;23.344;2023-05-09T01:12:25;94939.53;;;14.10;100.00
3178;BME280;38141;42.666;23.344;2023-05-09T01:14:58;94942.28;;;14.03;100.00
3178;BME280;38141;42.666;23.344;2023-05-09T01:17:35;94935.91;;;13.58;100.00
3178;BME280;38141;42.666;23.344;2023-05-09T01:20:11;94938.56;;;13.72;100.00
3178;BME280;38141;42.666;23.344;2023-05-09T01:22:46;94923.78;;;13.77;100.00
3178;BME280;38141;42.666;23.344;2023-05-09T01:25:36;94926.84;;;13.82;100.00
3178;BME280;38141;42.666;23.344;2023-05-09T01:28:12;94942.75;;;13.88;100.00
3178;BME280;38141;42.666;23.344;2023-05-09T01:30:44;94938.56;;;13.72;100.00
3178;BME280;38141;42.666;23.344;2023-05-09T01:33:14;94940.47;;;13.79;100.00
3178;BME280;38141;42.666;23.344;2023-05-09T01:35:43;94934.56;;;13.91;100.00
3178;BME280;38141;42.666;23.344;2023-05-09T01:38:17;94937.72;;;13.82;100.00
3178;BME280;38141;42.666;23.344;2023-05-09T01:40:48;94938.56;;;13.76;100.00
3178;BME280;38141;42.666;23.344;2023-05-09T01:43:16;94925.78;;;13.66;100.00
3178;BME280;38141;42.666;23.344;2023-05-09T01:45:47;94924.22;;;13.65;100.00
3178;BME280;38141;42.666;23.344;2023-05-09T01:48:14;94938.47;;;13.87;100.00
3178;BME280;38141;42.666;23.344;2023-05-09T01:50:43;94937.25;;;14.02;100.00
3178;BME280;38141;42.666;23.344;2023-05-09T01:53:10;94918.34;;;13.80;100.00
3178;BME280;38141;42.666;23.344;2023-05-09T01:55:39;94926.38;;;13.95;100.00
3178;BME280;38141;42.666;23.344;2023-05-09T01:58:07;94949.28;;;14.01;100.00
3178;BME280;38141;42.666;23.344;2023-05-09T02:00:35;94918.22;;;13.98;100.00
3178;BME280;38141;42.666;23.344;2023-05-09T02:03:05;94933.06;;;13.83;100.00
3178;BME280;38141;42.666;23.344;2023-05-09T02:05:32;94940.84;;;13.81;100.00
3178;BME280;38141;42.666;23.344;2023-05-09T02:08:00;94943.16;;;13.90;100.00
3178;BME280;38141;42.666;23.344;2023-05-09T02:10:27;94945.09;;;13.89;100.00
3178;BME280;38141;42.666;23.344;2023-05-09T02:12:54;94946.16;;;14.06;100.00
3178;BME280;38141;42.666;23.344;2023-05-09T02:15:21;94938.81;;;14.03;100.00
3178;BME280;38141;42.666;23.344;2023-05-09T02:17:48;94950.69;;;14.23;100.00
3178;BME280;38141;42.666;23.344;2023-05-09T02:20:16;94940.25;;;14.18;100.00
3178;BME280;38141;42.666;23.344;2023-05-09T02:22:43;94933.31;;;14.06;100.00
3178;BME280;38141;42.666;23.344;2023-05-09T02:25:11;94932.94;;;14.08;100.00
3178;BME280;38141;42.666;23.344;2023-05-09T02:27:42;94940.25;;;14.14;100.00
3178;BME280;38141;42.666;23.344;2023-05-09T02:30:13;94921.28;;;14.07;100.00
3178;BME280;38141;42.666;23.344;2023-05-09T02:32:43;94939.13;;;14.08;100.00
3178;BME280;38141;42.666;23.344;2023-05-09T02:35:11;94924.78;;;14.08;100.00
3178;BME280;38141;42.666;23.344;2023-05-09T02:37:42;94925.19;;;13.99;100.00
3178;BME280;38141;42.666;23.344;2023-05-09T02:40:10;94941.88;;;14.05;100.00
3178;BME280;38141;42.666;23.344;2023-05-09T02:42:37;94942.72;;;13.95;100.00
3178;BME280;38141;42.666;23.344;2023-05-09T02:45:05;94912.13;;;13.80;100.00
3178;BME280;38141;42.666;23.344;2023-05-09T02:47:34;94938.00;;;14.06;100.00
3178;BME280;38141;42.666;23.344;2023-05-09T02:50:00;94908.63;;;13.79;100.00
3178;BME280;38141;42.666;23.344;2023-05-09T02:52:28;94939.25;;;13.91;100.00
3178;BME280;38141;42.666;23.344;2023-05-09T02:54:57;94941.31;;;13.69;100.00
3178;BME280;38141;42.666;23.344;2023-05-09T02:57:24;94928.88;;;13.71;100.00
3178;BME280;38141;42.666;23.344;2023-05-09T02:59:51;94934.31;;;13.68;100.00
3178;BME280;38141;42.666;23.344;2023-05-09T03:02:18;94940.13;;;13.70;100.00
3178;BME280;38141;42.666;23.344;2023-05-09T03:04:44;94951.00;;;13.70;100.00
3178;BME280;38141;42.666;23.344;2023-05-09T03:07:11;94942.84;;;13.70;100.00
3178;BME280;38141;42.666;23.344;2023-05-09T03:09:38;94944.72;;;13.84;100.00
3178;BME280;38141;42.666;23.344;2023-05-09T03:12:06;94948.31;;;13.66;100.00
3178;BME280;38141;42.666;23.344;2023-05-09T03:14:34;94951.06;;;13.56;100.00
3178;BME280;38141;42.666;23.344;2023-05-09T03:17:01;94942.56;;;13.47;100.00
3178;BME280;38141;42.666;23.344;2023-05-09T03:19:27;94960.00;;;13.49;100.00
3178;BME280;38141;42.666;23.344;2023-05-09T03:21:54;94955.78;;;13.38;100.00
3178;BME280;38141;42.666;23.344;2023-05-09T03:24:21;94984.09;;;13.58;100.00
3178;BME280;38141;42.666;23.344;2023-05-09T03:26:48;94988.00;;;13.43;100.00
3178;BME280;38141;42.666;23.344;2023-05-09T03:29:16;94988.75;;;13.47;100.00
3178;BME280;38141;42.666;23.344;2023-05-09T03:31:43;94972.09;;;13.38;100.00
3178;BME280;38141;42.666;23.344;2023-05-09T03:34:10;94969.03;;;13.07;100.00
3178;BME280;38141;42.666;23.344;2023-05-09T03:36:40;94963.22;;;13.19;100.00
3178;BME280;38141;42.666;23.344;2023-05-09T03:39:06;94993.09;;;13.30;100.00
3178;BME280;38141;42.666;23.344;2023-05-09T03:41:34;94995.81;;;13.30;100.00
3178;BME280;38141;42.666;23.344;2023-05-09T03:44:01;95004.38;;;13.21;100.00
3178;BME280;38141;42.666;23.344;2023-05-09T03:46:29;94998.94;;;13.14;100.00
3178;BME280;38141;42.666;23.344;2023-05-09T03:48:56;95001.63;;;13.07;100.00
3178;BME280;38141;42.666;23.344;2023-05-09T03:51:23;95003.97;;;12.98;100.00
3178;BME280;38141;42.666;23.344;2023-05-09T03:53:50;95012.50;;;12.93;100.00
3178;BME280;38141;42.666;23.344;2023-05-09T03:56:17;94994.66;;;12.78;100.00
3178;BME280;38141;42.666;23.344;2023-05-09T03:58:44;95006.69;;;12.77;100.00
3178;BME280;38141;42.666;23.344;2023-05-09T04:01:11;95012.91;;;13.13;100.00
3178;BME280;38141;42.666;23.344;2023-05-09T04:03:39;95010.16;;;13.23;100.00
3178;BME280;38141;42.666;23.344;2023-05-09T04:06:06;95008.22;;;13.34;100.00
3178;BME280;38141;42.666;23.344;2023-05-09T04:08:33;95006.22;;;13.46;100.00
3178;BME280;38141;42.666;23.344;2023-05-09T04:11:00;94999.63;;;13.50;100.00
3178;BME280;38141;42.666;23.344;2023-05-09T04:13:27;94991.94;;;13.13;100.00
3178;BME280;38141;42.666;23.344;2023-05-09T04:15:54;94995.41;;;13.28;100.00
3178;BME280;38141;42.666;23.344;2023-05-09T04:18:21;95005.44;;;13.52;100.00
3178;BME280;38141;42.666;23.344;2023-05-09T04:20:49;94995.34;;;13.53;100.00
3178;BME280;38141;42.666;23.344;2023-05-09T04:23:23;94914.69;;;13.28;100.00
3178;BME280;38141;42.666;23.344;2023-05-09T04:25:50;94953.13;;;14.10;100.00
3178;BME280;38141;42.666;23.344;2023-05-09T04:28:21;95007.09;;;14.81;100.00
3178;BME280;38141;42.666;23.344;2023-05-09T04:30:57;94969.00;;;15.19;100.00
3178;BME280;38141;42.666;23.344;2023-05-09T04:33:24;94975.41;;;15.39;100.00
3178;BME280;38141;42.666;23.344;2023-05-09T04:35:57;94989.88;;;15.32;100.00
3178;BME280;38141;42.666;23.344;2023-05-09T04:38:26;95017.94;;;14.88;100.00
3178;BME280;38141;42.666;23.344;2023-05-09T04:40:53;94969.69;;;14.89;100.00
3178;BME280;38141;42.666;23.344;2023-05-09T04:43:22;94979.22;;;14.66;100.00
3178;BME280;38141;42.666;23.344;2023-05-09T04:45:50;95007.91;;;15.23;100.00
3178;BME280;38141;42.666;23.344;2023-05-09T04:48:17;94986.59;;;15.10;100.00
3178;BME280;38141;42.666;23.344;2023-05-09T04:50:46;94992.44;;;15.12;100.00
3178;BME280;38141;42.666;23.344;2023-05-09T04:53:15;94934.94;;;15.00;100.00
3178;BME280;38141;42.666;23.344;2023-05-09T04:55:47;94953.31;;;15.30;100.00
3178;BME280;38141;42.666;23.344;2023-05-09T04:58:14;94939.41;;;15.21;100.00
3178;BME280;38141;42.666;23.344;2023-05-09T05:00:45;94986.75;;;16.62;100.00
3178;BME280;38141;42.666;23.344;2023-05-09T05:03:12;94995.06;;;17.48;100.00
3178;BME280;38141;42.666;23.344;2023-05-09T05:05:39;94957.53;;;17.06;100.00
3178;BME280;38141;42.666;23.344;2023-05-09T05:08:08;95010.63;;;16.81;100.00
3178;BME280;38141;42.666;23.344;2023-05-09T05:10:42;94994.28;;;16.51;100.00
3178;BME280;38141;42.666;23.344;2023-05-09T05:13:09;95009.28;;;15.79;100.00
3178;BME280;38141;42.666;23.344;2023-05-09T05:15:36;94905.25;;;15.09;100.00
3178;BME280;38141;42.666;23.344;2023-05-09T05:18:07;94910.34;;;14.66;100.00
3178;BME280;38141;42.666;23.344;2023-05-09T05:20:39;94917.06;;;14.54;100.00
3178;BME280;38141;42.666;23.344;2023-05-09T05:23:06;94937.03;;;14.85;100.00
3178;BME280;38141;42.666;23.344;2023-05-09T05:25:33;95009.31;;;15.38;100.00
3178;BME280;38141;42.666;23.344;2023-05-09T05:28:01;94941.94;;;15.01;100.00
3178;BME280;38141;42.666;23.344;2023-05-09T05:30:28;94895.69;;;14.53;100.00
3178;BME280;38141;42.666;23.344;2023-05-09T05:32:55;94947.06;;;14.92;100.00
3178;BME280;38141;42.666;23.344;2023-05-09T05:35:21;94968.22;;;14.81;100.00
3178;BME280;38141;42.666;23.344;2023-05-09T05:37:49;95015.28;;;14.78;100.00
3178;BME280;38141;42.666;23.344;2023-05-09T05:40:15;94982.81;;;14.53;100.00
3178;BME280;38141;42.666;23.344;2023-05-09T05:42:42;95017.72;;;14.65;100.00
3178;BME280;38141;42.666;23.344;2023-05-09T05:45:12;95015.50;;;15.01;100.00
3178;BME280;38141;42.666;23.344;2023-05-09T05:47:39;95018.00;;;14.78;100.00
3178;BME280;38141;42.666;23.344;2023-05-09T05:50:06;95012.06;;;14.93;100.00
3178;BME280;38141;42.666;23.344;2023-05-09T05:52:36;95014.72;;;15.00;100.00
3178;BME280;38141;42.666;23.344;2023-05-09T05:55:03;95021.28;;;15.06;100.00
3178;BME280;38141;42.666;23.344;2023-05-09T05:57:30;95017.13;;;14.91;100.00
3178;BME280;38141;42.666;23.344;2023-05-09T05:59:57;95019.38;;;14.52;100.00
3178;BME280;38141;42.666;23.344;2023-05-09T06:02:25;95014.53;;;14.74;100.00
3178;BME280;38141;42.666;23.344;2023-05-09T06:04:52;94998.84;;;14.92;100.00
3178;BME280;38141;42.666;23.344;2023-05-09T06:07:19;95007.28;;;15.04;100.00
3178;BME280;38141;42.666;23.344;2023-05-09T06:09:45;95022.59;;;15.32;100.00
3178;BME280;38141;42.666;23.344;2023-05-09T06:12:12;95009.69;;;14.99;100.00
3178;BME280;38141;42.666;23.344;2023-05-09T06:14:40;95019.97;;;15.25;100.00
3178;BME280;38141;42.666;23.344;2023-05-09T06:17:07;95018.75;;;15.30;100.00
3178;BME280;38141;42.666;23.344;2023-05-09T06:19:35;95021.38;;;15.37;100.00
3178;BME280;38141;42.666;23.344;2023-05-09T06:22:02;95018.22;;;15.01;100.00
3178;BME280;38141;42.666;23.344;2023-05-09T06:24:29;95015.88;;;15.03;100.00
3178;BME280;38141;42.666;23.344;2023-05-09T06:26:56;95020.34;;;14.79;100.00
3178;BME280;38141;42.666;23.344;2023-05-09T06:29:22;94972.19;;;14.07;100.00
3178;BME280;38141;42.666;23.344;2023-05-09T06:31:49;95017.28;;;14.74;100.00
3178;BME280;38141;42.666;23.344;2023-05-09T06:34:16;95020.16;;;15.00;100.00
3178;BME280;38141;42.666;23.344;2023-05-09T06:36:44;95016.66;;;15.44;100.00
3178;BME280;38141;42.666;23.344;2023-05-09T06:39:11;95023.53;;;15.60;100.00
3178;BME280;38141;42.666;23.344;2023-05-09T06:41:37;95028.84;;;15.33;100.00
3178;BME280;38141;42.666;23.344;2023-05-09T06:44:04;95015.25;;;15.29;100.00
3178;BME280;38141;42.666;23.344;2023-05-09T06:46:31;95006.22;;;14.91;100.00
3178;BME280;38141;42.666;23.344;2023-05-09T06:48:58;94928.06;;;14.44;100.00
3178;BME280;38141;42.666;23.344;2023-05-09T06:51:26;95020.31;;;15.31;100.00
3178;BME280;38141;42.666;23.344;2023-05-09T06:53:54;94987.06;;;15.02;100.00
3178;BME280;38141;42.666;23.344;2023-05-09T06:56:21;95016.97;;;15.12;100.00
3178;BME280;38141;42.666;23.344;2023-05-09T06:58:49;95012.13;;;15.27;100.00
3178;BME280;38141;42.666;23.344;2023-05-09T07:01:16;95012.22;;;15.20;100.00
3178;BME280;38141;42.666;23.344;2023-05-09T07:03:43;95020.91;;;15.08;100.00
3178;BME280;38141;42.666;23.344;2023-05-09T07:06:11;95002.41;;;14.85;100.00
3178;BME280;38141;42.666;23.344;2023-05-09T07:08:38;95010.81;;;15.01;100.00
3178;BME280;38141;42.666;23.344;2023-05-09T07:11:06;94984.63;;;14.70;100.00
3178;BME280;38141;42.666;23.344;2023-05-09T07:13:32;94984.50;;;14.84;100.00
3178;BME280;38141;42.666;23.344;2023-05-09T07:15:59;95004.53;;;15.08;100.00
3178;BME280;38141;42.666;23.344;2023-05-09T07:18:26;95012.72;;;15.04;100.00
3178;BME280;38141;42.666;23.344;2023-05-09T07:20:54;95009.88;;;15.19;100.00
3178;BME280;38141;42.666;23.344;2023-05-09T07:23:21;95009.50;;;15.20;100.00
3178;BME280;38141;42.666;23.344;2023-05-09T07:25:47;95013.97;;;14.96;100.00
3178;BME280;38141;42.666;23.344;2023-05-09T07:28:15;95006.97;;;14.99;100.00
3178;BME280;38141;42.666;23.344;2023-05-09T07:30:43;94986.81;;;14.89;100.00
3178;BME280;38141;42.666;23.344;2023-05-09T07:33:10;95016.44;;;15.25;100.00
3178;BME280;38141;42.666;23.344;2023-05-09T07:35:36;95013.78;;;15.21;100.00
3178;BME280;38141;42.666;23.344;2023-05-09T07:38:03;95002.03;;;15.24;100.00
3178;BME280;38141;42.666;23.344;2023-05-09T07:40:30;95015.03;;;15.50;100.00
3178;BME280;38141;42.666;23.344;2023-05-09T07:42:57;95024.94;;;15.34;100.00
3178;BME280;38141;42.666;23.344;2023-05-09T07:45:26;95017.84;;;15.43;100.00
3178;BME280;38141;42.666;23.344;2023-05-09T07:47:52;95018.66;;;15.37;100.00
3178;BME280;38141;42.666;23.344;2023-05-09T07:50:19;95009.50;;;15.20;100.00
3178;BME280;38141;42.666;23.344;2023-05-09T07:52:47;95016.84;;;15.23;100.00
3178;BME280;38141;42.666;23.344;2023-05-09T07:55:15;95021.81;;;15.35;100.00
3178;BME280;38141;42.666;23.344;2023-05-09T07:57:42;95025.47;;;15.18;100.00
3178;BME280;38141;42.666;23.344;2023-05-09T08:00:10;95015.09;;;15.43;100.00
3178;BME280;38141;42.666;23.344;2023-05-09T08:02:38;95010.63;;;15.23;100.00
3178;BME280;38141;42.666;23.344;2023-05-09T08:05:06;94990.47;;;15.13;100.00
3178;BME280;38141;42.666;23.344;2023-05-09T08:07:35;95012.44;;;15.36;100.00
3178;BME280;38141;42.666;23.344;2023-05-09T08:10:03;95009.19;;;15.11;100.00
3178;BME280;38141;42.666;23.344;2023-05-09T08:12:29;95019.53;;;15.27;100.00
3178;BME280;38141;42.666;23.344;2023-05-09T08:14:56;95000.00;;;14.91;100.00
3178;BME280;38141;42.666;23.344;2023-05-09T08:17:23;94994.91;;;15.37;100.00
3178;BME280;38141;42.666;23.344;2023-05-09T08:19:51;95011.59;;;15.43;99.62
3178;BME280;38141;42.666;23.344;2023-05-09T08:22:18;95018.69;;;15.74;98.58
3178;BME280;38141;42.666;23.344;2023-05-09T08:24:45;95017.13;;;16.07;95.74
3178;BME280;38141;42.666;23.344;2023-05-09T08:27:12;95008.22;;;16.03;95.03
3178;BME280;38141;42.666;23.344;2023-05-09T08:29:39;95015.31;;;15.97;95.05
3178;BME280;38141;42.666;23.344;2023-05-09T08:32:06;95014.06;;;16.32;92.90
3178;BME280;38141;42.666;23.344;2023-05-09T08:34:34;95003.25;;;16.25;94.74
3178;BME280;38141;42.666;23.344;2023-05-09T08:37:03;94995.66;;;16.09;95.37
3178;BME280;38141;42.666;23.344;2023-05-09T08:39:30;95016.19;;;16.21;95.01
3178;BME280;38141;42.666;23.344;2023-05-09T08:42:00;95009.56;;;16.18;95.84
3178;BME280;38141;42.666;23.344;2023-05-09T08:44:29;94992.19;;;16.05;95.89
3178;BME280;38141;42.666;23.344;2023-05-09T08:46:58;95007.16;;;16.51;94.73
3178;BME280;38141;42.666;23.344;2023-05-09T08:49:25;95000.00;;;16.33;95.13
3178;BME280;38141;42.666;23.344;2023-05-09T08:51:54;95004.13;;;16.99;90.00
3178;BME280;38141;42.666;23.344;2023-05-09T08:54:23;95009.00;;;17.11;84.21
3178;BME280;38141;42.666;23.344;2023-05-09T08:56:50;95015.38;;;17.70;81.39
3178;BME280;38141;42.666;23.344;2023-05-09T08:59:17;95011.69;;;17.57;80.10
3178;BME280;38141;42.666;23.344;2023-05-09T09:01:44;95007.97;;;17.48;79.95
3178;BME280;38141;42.666;23.344;2023-05-09T09:04:11;95007.50;;;17.06;83.87
3178;BME280;38141;42.666;23.344;2023-05-09T09:06:38;95016.47;;;17.07;85.98
3178;BME280;38141;42.666;23.344;2023-05-09T09:09:06;95000.56;;;17.88;80.83
3178;BME280;38141;42.666;23.344;2023-05-09T09:11:36;95007.44;;;18.15;75.68
3178;BME280;38141;42.666;23.344;2023-05-09T09:14:05;95004.94;;;17.42;81.04
3178;BME280;38141;42.666;23.344;2023-05-09T09:16:37;94996.34;;;17.20;81.39
3178;BME280;38141;42.666;23.344;2023-05-09T09:19:07;94995.69;;;18.35;74.71
3178;BME280;38141;42.666;23.344;2023-05-09T09:21:38;95018.94;;;17.67;78.71
3178;BME280;38141;42.666;23.344;2023-05-09T09:24:06;95021.28;;;17.22;78.97
3178;BME280;38141;42.666;23.344;2023-05-09T09:26:44;95010.34;;;16.76;86.35
3178;BME280;38141;42.666;23.344;2023-05-09T09:29:12;95007.81;;;17.12;80.99
3178;BME280;38141;42.666;23.344;2023-05-09T09:31:43;95026.66;;;16.53;87.59
3178;BME280;38141;42.666;23.344;2023-05-09T09:34:11;95000.59;;;16.18;91.15
3178;BME280;38141;42.666;23.344;2023-05-09T09:36:39;94981.88;;;15.89;94.09
3178;BME280;38141;42.666;23.344;2023-05-09T09:39:06;95020.34;;;16.29;96.00
3178;BME280;38141;42.666;23.344;2023-05-09T09:41:36;95002.66;;;16.10;98.28
3178;BME280;38141;42.666;23.344;2023-05-09T09:44:06;95043.31;;;15.67;100.00
3178;BME280;38141;42.666;23.344;2023-05-09T09:46:43;95001.38;;;15.88;99.95
3178;BME280;38141;42.666;23.344;2023-05-09T09:49:11;95013.84;;;15.89;97.53
3178;BME280;38141;42.666;23.344;2023-05-09T09:51:38;95018.94;;;16.17;96.09
3178;BME280;38141;42.666;23.344;2023-05-09T09:54:06;94948.31;;;15.25;98.27
3178;BME280;38141;42.666;23.344;2023-05-09T09:56:42;94977.31;;;15.04;100.00
3178;BME280;38141;42.666;23.344;2023-05-09T09:59:10;95012.81;;;15.38;100.00
3178;BME280;38141;42.666;23.344;2023-05-09T10:01:56;95023.16;;;15.57;100.00
3178;BME280;38141;42.666;23.344;2023-05-09T10:04:24;95015.00;;;15.13;100.00
3178;BME280;38141;42.666;23.344;2023-05-09T10:06:52;94950.28;;;14.83;100.00
3178;BME280;38141;42.666;23.344;2023-05-09T10:09:20;95006.75;;;15.61;100.00
3178;BME280;38141;42.666;23.344;2023-05-09T10:11:50;95013.97;;;15.78;100.00
3178;BME280;38141;42.666;23.344;2023-05-09T10:14:18;95006.31;;;15.66;100.00
3178;BME280;38141;42.666;23.344;2023-05-09T10:16:47;95007.72;;;16.12;98.01
3178;BME280;38141;42.666;23.344;2023-05-09T10:19:17;94999.81;;;15.87;100.00
3178;BME280;38141;42.666;23.344;2023-05-09T10:21:49;95008.13;;;16.10;99.68
3178;BME280;38141;42.666;23.344;2023-05-09T10:24:21;95003.41;;;16.41;98.22
3178;BME280;38141;42.666;23.344;2023-05-09T10:26:54;94930.47;;;16.15;92.64
3178;BME280;38141;42.666;23.344;2023-05-09T10:29:26;94868.31;;;15.08;94.95
3178;BME280;38141;42.666;23.344;2023-05-09T10:31:58;94957.41;;;15.48;100.00
3178;BME280;38141;42.666;23.344;2023-05-09T10:34:30;94916.34;;;15.63;99.55
3178;BME280;38141;42.666;23.344;2023-05-09T10:37:02;95024.84;;;16.42;95.91
3178;BME280;38141;42.666;23.344;2023-05-09T10:39:30;94994.34;;;16.48;94.97
3178;BME280;38141;42.666;23.344;2023-05-09T10:41:59;94988.47;;;15.92;98.96
3178;BME280;38141;42.666;23.344;2023-05-09T10:44:26;95013.53;;;15.83;99.15
3178;BME280;38141;42.666;23.344;2023-05-09T10:46:54;95000.47;;;15.98;99.41
3178;BME280;38141;42.666;23.344;2023-05-09T10:49:21;94975.34;;;15.46;100.00
3178;BME280;38141;42.666;23.344;2023-05-09T10:51:48;94996.94;;;15.30;100.00
3178;BME280;38141;42.666;23.344;2023-05-09T10:54:25;95003.34;;;15.12;100.00
3178;BME280;38141;42.666;23.344;2023-05-09T10:56:53;94996.28;;;15.15;100.00
3178;BME280;38141;42.666;23.344;2023-05-09T10:59:33;94896.94;;;14.41;100.00
3178;BME280;38141;42.666;23.344;2023-05-09T11:02:02;95005.38;;;15.42;100.00
3178;BME280;38141;42.666;23.344;2023-05-09T11:04:29;95002.16;;;15.88;100.00
3178;BME280;38141;42.666;23.344;2023-05-09T11:06:57;94994.22;;;15.67;100.00
3178;BME280;38141;42.666;23.344;2023-05-09T11:09:25;95007.97;;;15.56;100.00
3178;BME280;38141;42.666;23.344;2023-05-09T11:11:54;94979.16;;;15.55;100.00
3178;BME280;38141;42.666;23.344;2023-05-09T11:14:37;95007.06;;;15.29;100.00
3178;BME280;38141;42.666;23.344;2023-05-09T11:17:05;95025.25;;;14.95;100.00
3178;BME280;38141;42.666;23.344;2023-05-09T11:19:36;94993.19;;;15.13;100.00
3178;BME280;38141;42.666;23.344;2023-05-09T11:22:14;95017.38;;;15.52;100.00
3178;BME280;38141;42.666;23.344;2023-05-09T11:24:45;95013.13;;;15.47;100.00
3178;BME280;38141;42.666;23.344;2023-05-09T11:27:18;94995.72;;;14.93;100.00
3178;BME280;38141;42.666;23.344;2023-05-09T11:29:49;95020.38;;;15.20;100.00
3178;BME280;38141;42.666;23.344;2023-05-09T11:32:17;95007.88;;;15.26;100.00
3178;BME280;38141;42.666;23.344;2023-05-09T11:34:44;94997.97;;;15.80;100.00
3178;BME280;38141;42.666;23.344;2023-05-09T11:37:12;95008.94;;;15.73;100.00
3178;BME280;38141;42.666;23.344;2023-05-09T11:39:56;95011.00;;;15.25;100.00
3178;BME280;38141;42.666;23.344;2023-05-09T11:42:23;95011.19;;;15.44;100.00
3178;BME280;38141;42.666;23.344;2023-05-09T11:44:52;95005.72;;;15.82;100.00
3178;BME280;38141;42.666;23.344;2023-05-09T11:47:19;95001.81;;;15.83;100.00
3178;BME280;38141;42.666;23.344;2023-05-09T11:49:47;94986.84;;;15.64;100.00
3178;BME280;38141;42.666;23.344;2023-05-09T11:52:14;95017.59;;;16.02;100.00
3178;BME280;38141;42.666;23.344;2023-05-09T11:54:41;95016.72;;;15.37;100.00
3178;BME280;38141;42.666;23.344;2023-05-09T11:57:08;95004.38;;;15.67;100.00
3178;BME280;38141;42.666;23.344;2023-05-09T11:59:37;94991.66;;;15.49;100.00
3178;BME280;38141;42.666;23.344;2023-05-09T12:02:07;95014.63;;;15.89;99.47
3178;BME280;38141;42.666;23.344;2023-05-09T12:04:35;94988.88;;;15.90;100.00
3178;BME280;38141;42.666;23.344;2023-05-09T12:07:03;95005.56;;;15.25;100.00
3178;BME280;38141;42.666;23.344;2023-05-09T12:09:31;95007.94;;;15.19;100.00
3178;BME280;38141;42.666;23.344;2023-05-09T12:11:59;95005.50;;;14.87;100.00
3178;BME280;38141;42.666;23.344;2023-05-09T12:14:27;95006.72;;;14.79;100.00
3178;BME280;38141;42.666;23.344;2023-05-09T12:16:54;94970.19;;;14.73;100.00
3178;BME280;38141;42.666;23.344;2023-05-09T12:19:23;94990.78;;;14.78;100.00
3178;BME280;38141;42.666;23.344;2023-05-09T12:21:53;94989.44;;;14.52;100.00
3178;BME280;38141;42.666;23.344;2023-05-09T12:24:22;94968.00;;;13.88;100.00
3178;BME280;38141;42.666;23.344;2023-05-09T12:26:51;94980.56;;;14.37;100.00
3178;BME280;38141;42.666;23.344;2023-05-09T12:29:18;94974.28;;;14.47;100.00
3178;BME280;38141;42.666;23.344;2023-05-09T12:31:46;94878.19;;;13.29;100.00
3178;BME280;38141;42.666;23.344;2023-05-09T12:34:23;95006.13;;;13.77;100.00
3178;BME280;38141;42.666;23.344;2023-05-09T12:36:50;94962.31;;;13.54;100.00
3178;BME280;38141;42.666;23.344;2023-05-09T12:39:21;94912.00;;;13.18;100.00
3178;BME280;38141;42.666;23.344;2023-05-09T12:41:49;94922.47;;;13.19;100.00
3178;BME280;38141;42.666;23.344;2023-05-09T12:44:18;94909.78;;;12.49;100.00
3178;BME280;38141;42.666;23.344;2023-05-09T12:46:52;94993.75;;;13.59;100.00
3178;BME280;38141;42.666;23.344;2023-05-09T12:49:20;94997.09;;;13.95;100.00
3178;BME280;38141;42.666;23.344;2023-05-09T12:51:49;94958.03;;;13.64;100.00
3178;BME280;38141;42.666;23.344;2023-05-09T12:54:19;94990.47;;;14.03;100.00
3178;BME280;38141;42.666;23.344;2023-05-09T12:56:46;94981.59;;;13.92;100.00
3178;BME280;38141;42.666;23.344;2023-05-09T12:59:19;95008.50;;;13.65;100.00